Time;durP1;ratioP1;P1;durP2;ratioP2;P2;SDS_P1;SDS_P2;PMS_P1;PMS_P2;Temp;Humidity;BMP_temperature;BMP_pressure;BME280_temperature;BME280_humidity;BME280_pressure;Samples;Min_cycle;Max_cycle;Signal;HPM_P1;HPM_P2
2023/03/26 00:00:58;;;;;;;5.03;1.15;;;6.90;99.90;;;;;;6257855;23;20169;-86
2023/03/26 00:03:23;;;;;;;7.63;1.40;;;6.90;99.90;;;;;;6251014;23;20206;-82
2023/03/26 00:05:59;;;;;;;4.10;1.27;;;6.90;99.90;;;;;;6249418;23;20152;-84
2023/03/26 00:08:25;;;;;;;4.90;1.13;;;6.90;99.90;;;;;;6247382;23;20148;-84
2023/03/26 00:10:50;;;;;;;4.67;1.40;;;6.90;99.90;;;;;;6238702;23;20168;-83
2023/03/26 00:13:16;;;;;;;7.53;2.27;;;6.90;99.90;;;;;;6247700;23;20147;-86
2023/03/26 00:15:42;;;;;;;5.23;1.50;;;6.90;99.90;;;;;;6244011;23;20975;-84
2023/03/26 00:18:08;;;;;;;6.70;1.50;;;6.80;99.90;;;;;;6245381;23;20148;-85
2023/03/26 00:20:33;;;;;;;3.07;1.20;;;6.70;99.90;;;;;;6242694;23;20422;-84
2023/03/26 00:23:02;;;;;;;4.80;1.50;;;6.70;99.90;;;;;;6242994;23;20375;-84
2023/03/26 00:25:28;;;;;;;8.13;1.33;;;6.60;99.90;;;;;;6244413;23;20125;-84
2023/03/26 00:27:53;;;;;;;4.27;1.60;;;6.60;99.90;;;;;;6244233;23;20157;-83
2023/03/26 00:30:19;;;;;;;4.23;1.67;;;6.80;99.90;;;;;;6244166;23;20168;-83
2023/03/26 00:32:45;;;;;;;3.57;1.60;;;6.70;99.90;;;;;;6242208;23;20168;-84
2023/03/26 00:35:11;;;;;;;3.40;1.57;;;6.80;99.90;;;;;;6256118;23;20151;-84
2023/03/26 00:37:37;;;;;;;13.98;1.92;;;6.80;99.90;;;;;;6256433;23;20382;-84
2023/03/26 00:40:05;;;;;;;3.90;1.30;;;6.70;99.90;;;;;;6248244;23;20212;-84
2023/03/26 00:42:31;;;;;;;5.68;1.63;;;6.90;99.90;;;;;;6246058;23;20164;-84
2023/03/26 00:44:57;;;;;;;3.33;1.57;;;;;;;;;;6249519;23;20232;-84
2023/03/26 00:47:27;;;;;;;2.23;0.90;;;7.00;99.90;;;;;;6247519;23;20367;-84
2023/03/26 00:49:53;;;;;;;7.45;1.05;;;7.00;99.90;;;;;;6240008;23;20438;-84
2023/03/26 00:52:19;;;;;;;2.90;1.65;;;7.10;99.90;;;;;;6240838;23;20758;-84
2023/03/26 00:54:45;;;;;;;6.73;1.10;;;7.10;99.90;;;;;;6240385;23;20236;-84
2023/03/26 00:57:12;;;;;;;5.18;2.00;;;7.10;99.90;;;;;;6238162;23;20164;-84
2023/03/26 00:59:38;;;;;;;5.13;1.55;;;7.00;99.90;;;;;;6238640;23;20180;-83
2023/03/26 01:02:05;;;;;;;5.88;1.65;;;7.00;99.90;;;;;;6234027;23;20152;-84
2023/03/26 01:04:33;;;;;;;4.22;1.25;;;7.00;99.90;;;;;;6234055;23;20155;-83
2023/03/26 01:07:09;;;;;;;4.25;1.38;;;6.90;99.90;;;;;;6236056;23;20143;-84
2023/03/26 01:09:41;;;;;;;2.10;1.10;;;6.90;99.90;;;;;;6240957;23;20136;-84
2023/03/26 01:12:15;;;;;;;4.55;1.10;;;6.80;99.90;;;;;;6248532;23;20129;-83
2023/03/26 01:14:41;;;;;;;8.90;2.10;;;6.80;99.90;;;;;;6241013;23;20222;-84
2023/03/26 01:17:08;;;;;;;6.83;1.40;;;6.70;99.90;;;;;;6240177;23;20678;-84
2023/03/26 01:19:39;;;;;;;4.60;1.80;;;6.60;99.90;;;;;;6243865;23;20168;-83
2023/03/26 01:22:09;;;;;;;3.63;1.65;;;6.60;99.90;;;;;;6247765;23;20167;-84
2023/03/26 01:24:35;;;;;;;1.33;0.93;;;6.60;99.90;;;;;;6244055;23;20149;-84
2023/03/26 01:27:20;;;;;;;2.22;1.23;;;6.60;99.90;;;;;;6240392;23;20157;-84
2023/03/26 01:29:53;;;;;;;2.50;1.48;;;6.50;99.90;;;;;;6244915;23;20543;-85
2023/03/26 01:32:49;;;;;;;3.42;1.60;;;6.50;99.90;;;;;;6248974;23;20159;-84
2023/03/26 01:35:44;;;;;;;7.97;1.80;;;6.40;99.90;;;;;;6247055;23;20160;-84
2023/03/26 01:38:21;;;;;;;3.38;1.05;;;6.50;99.90;;;;;;6242226;23;20133;-83
2023/03/26 01:40:51;;;;;;;3.75;1.15;;;6.50;99.90;;;;;;6239210;23;20188;-83
2023/03/26 01:43:22;;;;;;;3.58;1.25;;;6.50;99.90;;;;;;6239458;23;20215;-83
2023/03/26 01:45:49;;;;;;;7.65;1.30;;;6.50;99.90;;;;;;6238667;23;20195;-82
2023/03/26 01:48:15;;;;;;;7.72;2.30;;;6.50;99.90;;;;;;6246521;23;20156;-83
2023/03/26 01:50:41;;;;;;;5.53;1.60;;;6.60;99.90;;;;;;6238721;23;20172;-83
2023/03/26 01:53:09;;;;;;;4.00;1.40;;;6.50;99.90;;;;;;6237937;23;20791;-83
2023/03/26 01:55:57;;;;;;;1.50;1.00;;;6.40;99.90;;;;;;6234734;23;20160;-82
2023/03/26 01:58:28;;;;;;;5.40;1.10;;;6.50;99.90;;;;;;6229289;23;20184;-83
2023/03/26 02:01:11;;;;;;;7.55;1.05;;;6.60;99.90;;;;;;6237425;23;20251;-83
2023/03/26 02:03:51;;;;;;;4.20;1.52;;;6.70;99.90;;;;;;6232784;23;20175;-83
2023/03/26 02:06:36;;;;;;;5.03;1.80;;;6.70;99.90;;;;;;6233883;23;20151;-83
2023/03/26 02:09:10;;;;;;;6.85;1.80;;;6.70;99.90;;;;;;6234880;23;20145;-83
2023/03/26 02:11:37;;;;;;;2.60;0.80;;;6.70;99.90;;;;;;6241073;23;20730;-84
2023/03/26 02:14:07;;;;;;;6.55;1.75;;;6.60;99.90;;;;;;6242003;23;20148;-84
2023/03/26 02:16:32;;;;;;;7.60;1.80;;;6.60;99.90;;;;;;6231488;23;20153;-83
2023/03/26 02:18:59;;;;;;;7.93;2.00;;;6.70;99.90;;;;;;6236659;23;20215;-84
2023/03/26 02:21:25;;;;;;;6.00;1.48;;;6.60;99.90;;;;;;6236496;23;20195;-84
2023/03/26 02:24:01;;;;;;;8.63;1.60;;;6.50;99.90;;;;;;6228558;23;20183;-84
2023/03/26 02:26:28;;;;;;;2.25;1.65;;;6.50;99.90;;;;;;6233360;23;20252;-84
2023/03/26 02:28:54;;;;;;;4.05;2.20;;;6.40;99.90;;;;;;6238507;23;20155;-83
2023/03/26 02:31:20;;;;;;;6.57;1.90;;;6.30;99.90;;;;;;6237589;23;20259;-83
2023/03/26 02:33:46;;;;;;;3.88;1.33;;;6.40;99.90;;;;;;6240872;23;20437;-83
2023/03/26 02:36:12;;;;;;;9.53;1.70;;;6.40;99.90;;;;;;6250929;23;20163;-83
2023/03/26 02:38:40;;;;;;;6.45;1.45;;;6.30;99.90;;;;;;6248043;23;20371;-83
2023/03/26 02:41:06;;;;;;;7.90;2.15;;;6.40;99.90;;;;;;6240889;23;20245;-83
2023/03/26 02:43:31;;;;;;;9.00;2.20;;;6.40;99.90;;;;;;6244821;23;20152;-83
2023/03/26 02:45:57;;;;;;;5.93;1.70;;;6.40;99.90;;;;;;6239158;23;20458;-83
2023/03/26 02:48:23;;;;;;;5.30;1.73;;;;;;;;;;6237969;23;20159;-83
2023/03/26 02:50:53;;;;;;;4.65;1.20;;;6.40;99.90;;;;;;6238433;23;20169;-85
2023/03/26 02:53:20;;;;;;;4.70;1.20;;;6.50;99.90;;;;;;6238814;23;20161;-83
2023/03/26 02:55:46;;;;;;;9.20;1.50;;;6.50;99.90;;;;;;6237640;23;20166;-84
2023/03/26 02:58:16;;;;;;;1.83;1.23;;;6.50;99.90;;;;;;6240866;23;20180;-83
2023/03/26 03:00:43;;;;;;;12.35;2.47;;;6.50;99.90;;;;;;6238763;23;20192;-86
2023/03/26 03:03:08;;;;;;;8.07;0.95;;;6.70;99.90;;;;;;6237499;23;20202;-83
2023/03/26 03:05:36;;;;;;;11.87;1.70;;;6.70;99.90;;;;;;6237381;23;20157;-83
2023/03/26 03:08:03;;;;;;;5.28;1.70;;;6.90;99.90;;;;;;6239367;23;20536;-84
2023/03/26 03:10:31;;;;;;;6.55;2.63;;;7.00;99.90;;;;;;6244871;23;20156;-84
2023/03/26 03:12:57;;;;;;;3.63;0.85;;;7.10;99.90;;;;;;6249061;23;20167;-84
2023/03/26 03:15:23;;;;;;;9.10;1.75;;;7.10;99.90;;;;;;6248534;23;20152;-84
2023/03/26 03:17:49;;;;;;;3.97;1.20;;;7.20;99.90;;;;;;6248712;23;20948;-84
2023/03/26 03:20:15;;;;;;;5.73;1.00;;;7.10;99.90;;;;;;6249366;23;20180;-84
2023/03/26 03:22:41;;;;;;;1.40;1.13;;;7.20;99.90;;;;;;6239370;23;20383;-83
2023/03/26 03:25:08;;;;;;;4.93;1.90;;;7.20;99.90;;;;;;6246686;23;20143;-83
2023/03/26 03:27:34;;;;;;;4.38;1.80;;;7.20;99.90;;;;;;6244591;23;20383;-83
2023/03/26 03:29:59;;;;;;;7.57;1.60;;;7.10;99.90;;;;;;6243043;23;20176;-83
2023/03/26 03:32:26;;;;;;;4.70;1.00;;;7.10;99.90;;;;;;6239578;23;20148;-83
2023/03/26 03:34:52;;;;;;;5.95;1.70;;;7.10;99.90;;;;;;6241091;23;20237;-84
2023/03/26 03:37:18;;;;;;;2.17;1.50;;;7.10;99.90;;;;;;6238057;23;20166;-83
2023/03/26 03:39:44;;;;;;;13.23;1.75;;;7.10;99.90;;;;;;6242716;23;20668;-83
2023/03/26 03:42:11;;;;;;;1.90;0.73;;;7.10;99.90;;;;;;6242859;22;20152;-84
2023/03/26 03:44:37;;;;;;;1.60;0.90;;;;;;;;;;6239430;23;20200;-83
2023/03/26 03:47:03;;;;;;;3.70;1.90;;;;;;;;;;6238940;23;20390;-83
2023/03/26 03:49:29;;;;;;;4.30;1.20;;;7.30;99.90;;;;;;6240665;23;20394;-83
2023/03/26 03:51:54;;;;;;;4.23;1.13;;;7.30;99.90;;;;;;6251019;23;20188;-83
2023/03/26 03:54:20;;;;;;;6.40;1.50;;;7.20;99.90;;;;;;6253616;23;20133;-84
2023/03/26 03:56:46;;;;;;;13.80;2.90;;;7.30;99.90;;;;;;6246312;23;20226;-83
2023/03/26 03:59:11;;;;;;;5.07;1.25;;;7.30;99.90;;;;;;6242128;23;20183;-84
2023/03/26 04:01:37;;;;;;;1.70;1.10;;;7.30;99.90;;;;;;6239880;23;20164;-84
2023/03/26 04:04:03;;;;;;;10.43;1.47;;;7.30;99.90;;;;;;6242251;23;20141;-84
2023/03/26 04:06:29;;;;;;;4.20;1.10;;;7.40;99.90;;;;;;6241043;23;20243;-84
2023/03/26 04:08:55;;;;;;;9.40;2.15;;;7.40;99.90;;;;;;6240227;23;20422;-85
2023/03/26 04:11:20;;;;;;;3.95;1.52;;;7.30;99.90;;;;;;6242037;23;20179;-84
2023/03/26 04:13:46;;;;;;;10.53;2.27;;;7.30;99.90;;;;;;6244432;23;20145;-84
2023/03/26 04:16:12;;;;;;;1.27;0.77;;;7.30;99.90;;;;;;6240223;23;20450;-83
2023/03/26 04:18:38;;;;;;;14.57;1.57;;;7.40;99.90;;;;;;6238636;23;20156;-84
2023/03/26 04:21:06;;;;;;;3.03;0.97;;;7.40;99.90;;;;;;6239591;23;20250;-84
2023/03/26 04:23:33;;;;;;;1.35;0.98;;;7.40;99.90;;;;;;6238572;23;20133;-84
2023/03/26 04:26:03;;;;;;;5.28;0.95;;;7.40;99.90;;;;;;6236141;23;20176;-83
2023/03/26 04:28:52;;;;;;;2.83;1.27;;;7.40;99.90;;;;;;6238176;23;20159;-83
2023/03/26 04:31:22;;;;;;;6.30;1.48;;;7.40;99.90;;;;;;6237481;23;20177;-84
2023/03/26 04:33:54;;;;;;;2.85;1.30;;;7.40;99.90;;;;;;6237513;23;20161;-84
2023/03/26 04:36:25;;;;;;;6.40;1.25;;;7.40;99.90;;;;;;6241258;23;20286;-83
2023/03/26 04:38:52;;;;;;;5.43;1.60;;;7.40;99.90;;;;;;6242577;23;20128;-84
2023/03/26 04:41:21;;;;;;;2.72;1.15;;;7.40;99.90;;;;;;6240097;23;20199;-84
2023/03/26 04:43:49;;;;;;;3.15;1.30;;;7.40;99.90;;;;;;6242130;23;20195;-84
2023/03/26 04:46:20;;;;;;;3.28;1.25;;;7.30;99.90;;;;;;6240808;23;20149;-84
2023/03/26 04:48:47;;;;;;;8.93;0.98;;;7.40;99.90;;;;;;6237243;23;20148;-84
2023/03/26 04:51:17;;;;;;;5.72;1.40;;;7.40;99.90;;;;;;6241305;23;20176;-84
2023/03/26 04:53:49;;;;;;;4.28;1.40;;;7.40;99.90;;;;;;6240106;23;20153;-83
2023/03/26 04:56:45;;;;;;;4.40;1.83;;;7.40;99.90;;;;;;6241760;23;20157;-84
2023/03/26 04:59:25;;;;;;;3.05;1.40;;;7.50;99.90;;;;;;6240348;23;20152;-84
2023/03/26 05:01:54;;;;;;;2.40;1.27;;;7.50;99.90;;;;;;6240093;23;20187;-84
2023/03/26 05:04:19;;;;;;;8.50;1.65;;;7.50;99.90;;;;;;6237959;23;20176;-84
2023/03/26 05:06:45;;;;;;;3.73;1.43;;;7.50;99.90;;;;;;6248093;23;20156;-83
2023/03/26 05:09:11;;;;;;;2.30;0.83;;;7.50;99.90;;;;;;6242517;23;20508;-85
2023/03/26 05:11:37;;;;;;;4.23;1.57;;;7.50;99.90;;;;;;6237121;23;20395;-85
2023/03/26 05:14:02;;;;;;;5.67;1.10;;;7.50;99.90;;;;;;6239900;23;20156;-84
2023/03/26 05:16:30;;;;;;;3.30;2.00;;;7.50;99.90;;;;;;6245051;23;20155;-83
2023/03/26 05:18:56;;;;;;;3.03;1.52;;;7.50;99.90;;;;;;6247758;23;20820;-83
2023/03/26 05:21:21;;;;;;;3.90;1.10;;;7.50;99.90;;;;;;6240341;23;20172;-83
2023/03/26 05:23:47;;;;;;;4.93;1.10;;;7.50;99.90;;;;;;6239612;23;20152;-83
2023/03/26 05:26:13;;;;;;;6.30;1.50;;;7.50;99.90;;;;;;6243394;23;20212;-84
2023/03/26 05:28:39;;;;;;;3.22;1.35;;;7.50;99.90;;;;;;6240794;23;20139;-84
2023/03/26 05:31:05;;;;;;;5.20;1.00;;;7.50;99.90;;;;;;6238931;23;20682;-84
2023/03/26 05:33:31;;;;;;;11.50;2.78;;;7.50;99.90;;;;;;6238517;23;20168;-85
2023/03/26 05:36:02;;;;;;;1.17;0.70;;;7.50;99.90;;;;;;6243134;23;20591;-83
2023/03/26 05:38:29;;;;;;;5.40;1.45;;;7.60;99.90;;;;;;6233920;23;20549;-82
2023/03/26 05:41:02;;;;;;;2.67;0.90;;;7.60;99.90;;;;;;6237243;23;21004;-83
2023/03/26 05:43:29;;;;;;;21.65;2.40;;;7.70;99.90;;;;;;6237574;23;20144;-83
2023/03/26 05:45:55;;;;;;;5.18;2.33;;;7.70;99.90;;;;;;6235159;23;20538;-83
2023/03/26 05:48:21;;;;;;;5.13;1.10;;;7.70;99.90;;;;;;6234204;23;20156;-82
2023/03/26 05:50:48;;;;;;;5.13;2.63;;;7.70;99.90;;;;;;6233712;23;20415;-82
2023/03/26 05:53:13;;;;;;;7.45;2.38;;;7.70;99.90;;;;;;6238079;23;20398;-82
2023/03/26 05:55:39;;;;;;;4.37;1.47;;;7.70;99.90;;;;;;6234376;23;20156;-83
2023/03/26 05:58:05;;;;;;;2.50;1.63;;;7.80;99.90;;;;;;6244035;23;20188;-82
2023/03/26 06:00:32;;;;;;;4.57;1.50;;;7.80;99.90;;;;;;6251345;23;20183;-82
2023/03/26 06:02:58;;;;;;;6.10;2.65;;;7.80;99.90;;;;;;6243228;23;20387;-82
2023/03/26 06:05:25;;;;;;;9.40;1.10;;;7.90;99.90;;;;;;6238182;23;20180;-83
2023/03/26 06:07:50;;;;;;;7.97;1.80;;;7.90;99.90;;;;;;6237352;23;20207;-83
2023/03/26 06:10:16;;;;;;;7.50;1.73;;;8.00;99.90;;;;;;6240685;23;20176;-83
2023/03/26 06:12:42;;;;;;;4.33;1.53;;;8.00;99.90;;;;;;6234103;23;20152;-83
2023/03/26 06:15:08;;;;;;;9.83;1.87;;;8.00;99.90;;;;;;6236406;23;20156;-83
2023/03/26 06:17:34;;;;;;;5.30;1.55;;;8.00;99.90;;;;;;6236510;23;20246;-84
2023/03/26 06:19:59;;;;;;;6.53;1.63;;;8.10;99.90;;;;;;6237207;23;20211;-83
2023/03/26 06:22:25;;;;;;;15.80;3.03;;;8.10;99.90;;;;;;6238986;23;20149;-83
2023/03/26 06:24:51;;;;;;;1.27;0.80;;;8.20;99.90;;;;;;6234032;23;20210;-82
2023/03/26 06:27:17;;;;;;;1.30;1.00;;;8.20;99.90;;;;;;6233576;23;20152;-83
2023/03/26 06:29:42;;;;;;;6.30;1.70;;;8.20;99.90;;;;;;6233957;23;20165;-83
2023/03/26 06:32:08;;;;;;;9.40;1.73;;;8.20;99.90;;;;;;6232537;23;20829;-83
2023/03/26 06:34:34;;;;;;;3.17;1.60;;;8.20;99.90;;;;;;6233627;23;20164;-83
2023/03/26 06:36:59;;;;;;;9.67;2.00;;;8.20;99.90;;;;;;6237338;23;20210;-83
2023/03/26 06:39:25;;;;;;;2.30;1.50;;;8.20;99.90;;;;;;6249318;23;20194;-83
2023/03/26 06:41:51;;;;;;;4.73;1.77;;;8.20;99.90;;;;;;6243667;23;20183;-83
2023/03/26 06:44:16;;;;;;;7.47;1.80;;;8.10;99.90;;;;;;6236363;23;20384;-82
2023/03/26 06:46:42;;;;;;;4.63;1.73;;;8.10;99.90;;;;;;6236296;23;20492;-83
2023/03/26 06:49:07;;;;;;;4.53;1.00;;;8.10;99.90;;;;;;6234749;23;20168;-83
2023/03/26 06:51:33;;;;;;;4.50;1.13;;;8.20;99.90;;;;;;6232690;23;20375;-83
2023/03/26 06:53:59;;;;;;;7.07;1.70;;;8.20;99.90;;;;;;6255552;22;20224;-82
2023/03/26 06:56:24;;;;;;;10.83;1.67;;;8.20;99.90;;;;;;6243470;23;20163;-82
2023/03/26 06:58:50;;;;;;;13.80;2.10;;;8.30;99.90;;;;;;6241916;23;20566;-82
2023/03/26 07:01:15;;;;;;;10.63;1.93;;;8.40;99.90;;;;;;6238667;23;20997;-82
2023/03/26 07:03:41;;;;;;;9.13;5.53;;;8.50;99.90;;;;;;6234782;23;20152;-82
2023/03/26 07:06:06;;;;;;;16.03;4.03;;;8.50;99.90;;;;;;6234191;23;20606;-82
2023/03/26 07:08:32;;;;;;;13.60;7.33;;;8.50;99.90;;;;;;6231672;23;20159;-82
2023/03/26 07:10:57;;;;;;;10.33;5.17;;;8.50;99.90;;;;;;6237434;23;21133;-83
2023/03/26 07:13:23;;;;;;;5.97;2.27;;;8.40;99.90;;;;;;6240004;23;20159;-82
2023/03/26 07:15:49;;;;;;;8.30;2.60;;;8.40;99.90;;;;;;6237886;23;20148;-83
2023/03/26 07:18:14;;;;;;;3.53;0.60;;;8.30;99.90;;;;;;6240998;23;20159;-82
2023/03/26 07:20:41;;;;;;;6.97;1.60;;;8.20;99.90;;;;;;6240632;23;20193;-82
2023/03/26 07:23:08;;;;;;;11.02;6.15;;;8.10;99.90;;;;;;6243358;23;20153;-82
2023/03/26 07:25:34;;;;;;;3.88;1.98;;;8.10;99.90;;;;;;6243058;23;20351;-84
2023/03/26 07:28:20;;;;;;;17.57;9.87;;;8.20;99.90;;;;;;6245621;23;20174;-84
2023/03/26 07:30:58;;;;;;;14.50;5.97;;;8.10;99.90;;;;;;6242177;23;20173;-83
2023/03/26 07:33:48;;;;;;;14.68;6.70;;;8.00;99.90;;;;;;6245206;23;20164;-83
2023/03/26 07:36:20;;;;;;;7.18;2.35;;;7.90;99.90;;;;;;6247371;23;20274;-82
2023/03/26 07:38:49;;;;;;;6.20;2.90;;;8.00;99.90;;;;;;6243511;23;20159;-82
2023/03/26 07:41:32;;;;;;;9.02;2.67;;;8.10;99.90;;;;;;6244209;23;20173;-83
2023/03/26 07:44:12;;;;;;;5.93;1.85;;;8.10;99.90;;;;;;6240990;23;20223;-83
2023/03/26 07:46:38;;;;;;;12.63;4.60;;;7.90;99.90;;;;;;6241168;23;20144;-83
2023/03/26 07:49:04;;;;;;;9.87;2.50;;;7.80;99.90;;;;;;6245083;23;20140;-83
2023/03/26 07:51:31;;;;;;;8.45;4.25;;;7.70;99.90;;;;;;6238735;23;20169;-82
2023/03/26 07:53:59;;;;;;;19.65;7.88;;;7.60;99.90;;;;;;6238674;23;20172;-83
2023/03/26 07:56:39;;;;;;;9.80;3.90;;;7.50;99.90;;;;;;6240294;23;20153;-82
2023/03/26 07:59:15;;;;;;;18.77;9.38;;;7.40;99.90;;;;;;6241326;23;20820;-83
2023/03/26 08:02:00;;;;;;;10.30;4.70;;;7.30;99.90;;;;;;6239484;23;20203;-83
2023/03/26 08:04:48;;;;;;;21.55;7.55;;;7.30;99.90;;;;;;6249886;23;20191;-82
2023/03/26 08:07:49;;;;;;;6.50;2.35;;;7.20;99.90;;;;;;6243887;23;20153;-83
2023/03/26 08:10:41;;;;;;;12.35;3.15;;;7.10;99.90;;;;;;6244894;23;20171;-83
2023/03/26 08:13:36;;;;;;;13.40;5.68;;;7.10;99.90;;;;;;6250098;23;20196;-82
2023/03/26 08:16:34;;;;;;;9.45;4.80;;;7.10;99.90;;;;;;6245381;23;20163;-83
2023/03/26 08:19:21;;;;;;;13.05;4.97;;;7.20;99.90;;;;;;6247111;23;20156;-82
2023/03/26 08:22:12;;;;;;;6.32;2.40;;;7.40;99.90;;;;;;6243374;23;20183;-83
2023/03/26 08:24:58;;;;;;;10.07;2.38;;;7.50;99.90;;;;;;6244128;23;20197;-86
2023/03/26 08:27:42;;;;;;;3.42;2.17;;;7.50;99.90;;;;;;6237181;23;20218;-82
2023/03/26 08:30:25;;;;;;;9.82;2.67;;;7.40;99.90;;;;;;6246605;23;20168;-82
2023/03/26 08:33:18;;;;;;;6.10;2.35;;;7.30;99.90;;;;;;6247528;23;20160;-83
2023/03/26 08:35:44;;;;;;;3.45;2.10;;;7.20;99.90;;;;;;6247615;23;20212;-83
2023/03/26 08:38:12;;;;;;;7.70;2.58;;;7.20;99.90;;;;;;6251144;23;20159;-83
2023/03/26 08:40:47;;;;;;;3.35;1.95;;;7.20;99.90;;;;;;6244003;23;20180;-83
2023/03/26 08:43:33;;;;;;;6.45;2.30;;;7.10;99.90;;;;;;6248311;23;20724;-83
2023/03/26 08:46:37;;;;;;;2.95;1.60;;;7.20;99.90;;;;;;6249704;23;20137;-82
2023/03/26 08:49:16;;;;;;;2.00;1.10;;;7.20;99.90;;;;;;6244031;23;20231;-83
2023/03/26 08:52:10;;;;;;;18.95;4.82;;;7.20;99.90;;;;;;6245356;23;20175;-83
2023/03/26 08:54:56;;;;;;;6.60;3.17;;;7.20;99.90;;;;;;6240401;23;20144;-83
2023/03/26 08:57:46;;;;;;;5.30;2.20;;;7.30;99.90;;;;;;6246814;23;20152;-83
2023/03/26 09:00:36;;;;;;;8.00;2.40;;;7.30;99.90;;;;;;6253353;23;20188;-83
2023/03/26 09:03:33;;;;;;;5.90;2.22;;;7.40;99.90;;;;;;6251531;23;20141;-82
2023/03/26 09:06:18;;;;;;;8.90;1.88;;;7.40;99.90;;;;;;6247517;23;20227;-83
2023/03/26 09:08:55;;;;;;;4.85;2.03;;;7.50;99.90;;;;;;6246589;23;20137;-84
2023/03/26 09:11:42;;;;;;;4.72;1.92;;;7.90;99.90;;;;;;6251050;23;20229;-83
2023/03/26 09:14:44;;;;;;;7.05;2.40;;;8.10;99.90;;;;;;6246013;23;20144;-82
2023/03/26 09:17:42;;;;;;;6.20;2.00;;;7.90;99.90;;;;;;6238645;23;20363;-84
2023/03/26 09:20:35;;;;;;;15.45;1.77;;;8.00;99.90;;;;;;6240381;23;20295;-83
2023/03/26 09:23:14;;;;;;;3.53;1.25;;;8.40;99.90;;;;;;6239158;23;20204;-84
2023/03/26 09:26:26;;;;;;;4.40;1.60;;;9.00;99.90;;;;;;6248255;23;20151;-84
2023/03/26 09:29:21;;;;;;;5.65;2.10;;;10.10;99.90;;;;;;6201420;23;20156;-83
2023/03/26 09:31:58;;;;;;;2.92;1.20;;;11.70;99.90;;;;;;6255032;23;20160;-83
2023/03/26 09:34:52;;;;;;;5.22;2.28;;;12.80;99.90;;;;;;6250842;23;20171;-82
2023/03/26 09:37:54;;;;;;;7.38;2.55;;;11.80;99.90;;;;;;6244531;23;20145;-83
2023/03/26 09:40:25;;;;;;;2.67;2.08;;;11.30;99.90;;;;;;6247587;23;20174;-82
2023/03/26 09:43:15;;;;;;;4.03;3.17;;;10.80;99.90;;;;;;6245257;23;20133;-83
2023/03/26 09:45:58;;;;;;;8.15;4.07;;;10.70;99.90;;;;;;6243031;23;20149;-84
2023/03/26 09:48:30;;;;;;;4.82;1.95;;;10.20;99.90;;;;;;6238685;23;20147;-85
2023/03/26 09:51:16;;;;;;;3.75;1.20;;;10.20;99.90;;;;;;6242517;23;20204;-81
2023/03/26 09:53:52;;;;;;;2.95;1.50;;;10.20;99.90;;;;;;6236546;23;20167;-83
2023/03/26 09:56:57;;;;;;;12.82;1.67;;;9.70;99.90;;;;;;6242531;23;20224;-84
2023/03/26 09:59:53;;;;;;;5.72;1.83;;;9.30;99.90;;;;;;6244254;23;20152;-85
2023/03/26 10:02:29;;;;;;;5.93;3.95;;;9.30;99.90;;;;;;6244390;23;20147;-83
2023/03/26 10:05:03;;;;;;;7.20;1.80;;;9.20;99.90;;;;;;6252678;22;20128;-85
2023/03/26 10:08:02;;;;;;;7.97;1.85;;;9.20;99.90;;;;;;6239541;23;20144;-83
2023/03/26 10:10:41;;;;;;;1.95;1.42;;;9.40;99.90;;;;;;6204065;23;20180;-81
2023/03/26 10:13:15;;;;;;;6.57;1.80;;;9.40;99.90;;;;;;6239341;23;20171;-84
2023/03/26 10:16:20;;;;;;;5.40;2.13;;;9.60;99.90;;;;;;6243231;23;20145;-84
2023/03/26 10:18:47;;;;;;;3.70;1.85;;;;;;;;;;6237391;23;20160;-83
2023/03/26 10:21:18;;;;;;;2.00;1.42;;;10.80;99.90;;;;;;6241808;23;20180;-83
2023/03/26 10:24:00;;;;;;;3.42;1.95;;;11.80;99.90;;;;;;6237489;23;20159;-83
2023/03/26 10:26:42;;;;;;;1.60;1.20;;;12.00;99.90;;;;;;6237702;23;20212;-83
2023/03/26 10:29:26;;;;;;;2.70;1.65;;;11.50;99.90;;;;;;6236035;23;20140;-83
2023/03/26 10:31:57;;;;;;;4.25;1.92;;;11.80;99.90;;;;;;6239226;23;20168;-83
2023/03/26 10:34:59;;;;;;;11.85;2.33;;;12.30;99.90;;;;;;6241630;23;20175;-82
2023/03/26 10:37:27;;;;;;;4.50;1.58;;;13.00;99.90;;;;;;6226641;23;20311;-82
2023/03/26 10:40:19;;;;;;;9.88;2.67;;;13.40;99.90;;;;;;6225802;23;20255;-87
2023/03/26 10:43:18;;;;;;;6.72;2.10;;;13.60;99.90;;;;;;6237067;23;20312;-82
2023/03/26 10:45:53;;;;;;;3.00;1.40;;;13.90;99.90;;;;;;6232808;23;20552;-82
2023/03/26 10:48:36;;;;;;;2.57;1.30;;;13.40;99.90;;;;;;6240376;23;20136;-84
2023/03/26 10:51:20;;;;;;;3.10;1.97;;;13.50;99.90;;;;;;6243412;23;20631;-83
2023/03/26 10:53:53;;;;;;;4.93;1.60;;;13.40;99.90;;;;;;6251110;23;20407;-86
2023/03/26 10:56:33;;;;;;;3.40;1.20;;;12.80;99.90;;;;;;6245295;23;20566;-84
2023/03/26 10:59:05;;;;;;;5.10;1.90;;;12.80;99.90;;;;;;6247774;23;20166;-84
2023/03/26 11:02:08;;;;;;;6.80;1.97;;;12.90;99.90;;;;;;6245207;23;20203;-84
2023/03/26 11:04:46;;;;;;;2.53;0.90;;;13.20;99.90;;;;;;6242973;23;20832;-84
2023/03/26 11:07:37;;;;;;;3.07;1.17;;;13.60;99.90;;;;;;6240841;23;20366;-85
2023/03/26 11:10:08;;;;;;;3.33;1.20;;;13.70;99.90;;;;;;6243150;23;20466;-84
2023/03/26 11:12:50;;;;;;;2.00;1.10;;;14.00;99.90;;;;;;6246515;23;20352;-85
2023/03/26 11:15:34;;;;;;;1.20;0.83;;;14.00;99.90;;;;;;6245612;23;20979;-84
2023/03/26 11:18:13;;;;;;;3.50;0.80;;;13.30;99.90;;;;;;6243405;23;20987;-83
2023/03/26 11:20:41;;;;;;;3.10;0.90;;;13.30;99.90;;;;;;6243888;23;20423;-84
2023/03/26 11:23:25;;;;;;;4.15;0.93;;;13.30;99.90;;;;;;6245264;23;20964;-84
2023/03/26 11:26:03;;;;;;;1.53;1.17;;;13.10;99.90;;;;;;6242707;23;20144;-84
2023/03/26 11:28:53;;;;;;;4.73;1.03;;;13.50;99.90;;;;;;6246679;23;20466;-84
2023/03/26 11:31:36;;;;;;;4.33;0.93;;;14.10;99.90;;;;;;6246447;23;20434;-84
2023/03/26 11:34:08;;;;;;;1.77;0.80;;;14.30;99.90;;;;;;6242456;23;20419;-84
2023/03/26 11:36:41;;;;;;;2.50;0.87;;;14.70;99.90;;;;;;6244299;23;20383;-83
2023/03/26 11:39:14;;;;;;;1.40;0.80;;;14.80;99.90;;;;;;6237829;23;20375;-83
2023/03/26 11:41:40;;;;;;;1.43;0.73;;;14.80;99.90;;;;;;6242336;23;21222;-83
2023/03/26 11:44:21;;;;;;;4.80;0.67;;;14.80;99.90;;;;;;6245476;23;20377;-83
2023/03/26 11:46:51;;;;;;;1.70;0.80;;;14.60;99.90;;;;;;6242044;23;20371;-83
2023/03/26 11:49:19;;;;;;;1.10;0.63;;;14.30;99.90;;;;;;6238862;23;20364;-83
2023/03/26 11:51:47;;;;;;;3.00;1.07;;;13.60;99.90;;;;;;6233950;23;20384;-84
2023/03/26 11:54:14;;;;;;;3.10;0.90;;;13.70;99.90;;;;;;6244686;23;20352;-84
2023/03/26 11:56:50;;;;;;;0.90;0.50;;;13.70;99.90;;;;;;6242335;23;20908;-84
2023/03/26 11:59:45;;;;;;;1.80;0.50;;;14.00;99.90;;;;;;6243143;23;20710;-83
2023/03/26 12:02:16;;;;;;;2.00;0.80;;;14.00;99.90;;;;;;6235454;23;20403;-83
2023/03/26 12:04:44;;;;;;;3.90;0.97;;;13.70;99.90;;;;;;6241859;23;20873;-82
2023/03/26 12:07:13;;;;;;;1.43;0.60;;;14.00;99.90;;;;;;6241948;23;20410;-83
2023/03/26 12:10:11;;;;;;;3.33;0.97;;;14.50;99.90;;;;;;6240412;23;20383;-82
2023/03/26 12:12:40;;;;;;;2.20;0.70;;;14.60;99.90;;;;;;6240846;22;20521;-82
2023/03/26 12:15:17;;;;;;;4.23;0.67;;;14.00;99.90;;;;;;6236916;23;20442;-83
2023/03/26 12:17:52;;;;;;;3.23;0.77;;;13.80;99.90;;;;;;6241998;23;21215;-83
2023/03/26 12:20:23;;;;;;;2.42;0.75;;;13.40;99.90;;;;;;6239012;23;20438;-82
2023/03/26 12:22:58;;;;;;;0.95;0.63;;;13.00;99.90;;;;;;6240621;23;20467;-83
2023/03/26 12:25:32;;;;;;;3.43;0.90;;;13.30;99.90;;;;;;6236337;23;20143;-83
2023/03/26 12:28:01;;;;;;;2.25;1.08;;;13.30;99.90;;;;;;6252952;23;20357;-82
2023/03/26 12:30:29;;;;;;;1.37;0.60;;;13.30;99.90;;;;;;6250605;23;20180;-82
2023/03/26 12:33:24;;;;;;;5.53;0.80;;;13.20;99.90;;;;;;6245564;23;20490;-82
2023/03/26 12:35:51;;;;;;;1.88;0.50;;;13.00;99.90;;;;;;6232623;22;20255;-82
2023/03/26 12:38:22;;;;;;;1.40;0.60;;;12.80;99.90;;;;;;6237619;23;20159;-82
2023/03/26 12:41:03;;;;;;;3.15;0.50;;;12.90;99.90;;;;;;6245833;23;20191;-83
2023/03/26 12:43:41;;;;;;;1.30;0.70;;;13.40;99.90;;;;;;6240522;23;20132;-82
2023/03/26 12:46:26;;;;;;;2.00;0.63;;;13.60;99.90;;;;;;6239255;23;20443;-82
2023/03/26 12:48:53;;;;;;;1.70;0.60;;;14.00;99.90;;;;;;6240026;23;20378;-82
2023/03/26 12:51:40;;;;;;;0.80;0.40;;;13.80;99.90;;;;;;6236978;23;20490;-82
2023/03/26 12:54:32;;;;;;;3.53;0.50;;;13.50;99.50;;;;;;6229502;23;20371;-83
2023/03/26 12:57:21;;;;;;;0.93;0.57;;;13.60;99.90;;;;;;6243556;23;20379;-82
2023/03/26 13:00:15;;;;;;;1.03;0.73;;;13.90;99.90;;;;;;6233095;23;20415;-83
2023/03/26 13:03:04;;;;;;;0.70;0.67;;;13.90;99.60;;;;;;6236496;23;20347;-83
2023/03/26 13:06:12;;;;;;;2.70;1.00;;;14.00;99.50;;;;;;6237521;23;20474;-84
2023/03/26 13:08:56;;;;;;;6.97;1.07;;;14.20;99.90;;;;;;6226595;23;20391;-81
2023/03/26 13:11:31;;;;;;;2.23;0.93;;;14.60;99.90;;;;;;6227890;23;20706;-82
2023/03/26 13:14:02;;;;;;;1.87;0.60;;;14.50;99.90;;;;;;6230248;23;20375;-81
2023/03/26 13:16:38;;;;;;;3.07;1.13;;;14.00;99.00;;;;;;6230373;23;20364;-81
2023/03/26 13:19:20;;;;;;;2.13;0.90;;;13.80;99.90;;;;;;6238152;23;20360;-82
2023/03/26 13:22:04;;;;;;;1.50;0.77;;;13.90;99.70;;;;;;6229170;23;20494;-82
2023/03/26 13:24:52;;;;;;;1.13;0.73;;;13.80;99.90;;;;;;6232751;23;20344;-82
2023/03/26 13:27:35;;;;;;;8.50;0.87;;;14.20;99.90;;;;;;6232464;23;20359;-82
2023/03/26 13:30:20;;;;;;;3.73;0.80;;;13.90;99.40;;;;;;6228979;23;20407;-82